createdAt,value
2018-09-16T00:01:58.730Z,79.74
2018-09-16T00:04:31.218Z,79.53
2018-09-16T00:07:01.322Z,80.27
2018-09-16T00:09:31.511Z,79.13
2018-09-16T00:12:02.547Z,79.57
2018-09-16T00:14:32.603Z,79.98
2018-09-16T00:17:02.736Z,80.52
2018-09-16T00:19:32.790Z,79.11
2018-09-16T00:22:02.884Z,78.30
2018-09-16T00:24:32.966Z,77.65
2018-09-16T00:27:03.047Z,76.98
2018-09-16T00:29:33.263Z,75.93
2018-09-16T00:32:09.395Z,75.77
2018-09-16T00:34:39.491Z,77.50
2018-09-16T00:37:09.746Z,79.30
2018-09-16T00:39:40.947Z,79.71
2018-09-16T00:42:10.953Z,80.59
2018-09-16T00:44:41.158Z,80.35
2018-09-16T00:47:11.387Z,79.62
2018-09-16T00:49:41.694Z,79.38
2018-09-16T00:52:11.718Z,80.08
2018-09-16T00:54:41.780Z,80.20
2018-09-16T00:57:11.805Z,80.11
2018-09-16T00:59:56.953Z,80.64
2018-09-16T01:02:27.105Z,79.89
2018-09-16T01:04:57.231Z,80.77
2018-09-16T01:07:27.497Z,80.78
2018-09-16T01:09:57.841Z,78.86
2018-09-16T01:12:43.645Z,77.99
2018-09-16T01:15:13.777Z,77.62
2018-09-16T01:17:43.822Z,77.57
2018-09-16T01:20:15.223Z,78.96
2018-09-16T01:22:45.366Z,78.32
2018-09-16T01:25:15.423Z,78.43
2018-09-16T01:27:45.681Z,80.28
2018-09-16T01:30:20.484Z,80.59
2018-09-16T01:32:50.924Z,80.79
2018-09-16T01:35:22.592Z,79.46
2018-09-16T01:37:57.782Z,79.02
2018-09-16T01:40:27.873Z,78.74
2018-09-16T01:42:57.915Z,79.34
2018-09-16T01:45:29.227Z,78.72
2018-09-16T01:47:59.411Z,77.95
2018-09-16T01:50:29.454Z,78.10
2018-09-16T01:52:59.572Z,77.21
2018-09-16T01:55:29.665Z,77.97
2018-09-16T01:58:01.759Z,79.20
2018-09-16T02:00:31.860Z,80.85
2018-09-16T02:03:02.167Z,80.37
2018-09-16T02:05:37.399Z,81.42
2018-09-16T02:08:07.992Z,79.86
2018-09-16T02:10:39.152Z,81.28
2018-09-16T02:13:09.711Z,81.98
2018-09-16T02:15:40.126Z,82.13
2018-09-16T02:18:10.336Z,81.13
2018-09-16T02:20:40.498Z,80.50
2018-09-16T02:23:11.357Z,81.06
2018-09-16T02:25:42.524Z,80.56
2018-09-16T02:28:14.099Z,78.90
2018-09-16T02:30:44.304Z,80.34
2018-09-16T02:33:14.648Z,80.43
2018-09-16T02:35:44.737Z,80.86
2018-09-16T02:38:15.006Z,80.63
2018-09-16T02:40:45.073Z,79.95
2018-09-16T02:43:15.317Z,78.56
2018-09-16T02:45:45.382Z,78.36
2018-09-16T02:48:15.663Z,78.32
2018-09-16T02:50:46.007Z,79.67
2018-09-16T02:53:16.073Z,80.84
2018-09-16T02:55:46.119Z,80.87
2018-09-16T02:58:16.174Z,81.36
2018-09-16T03:00:46.329Z,80.64
2018-09-16T03:03:16.598Z,80.75
2018-09-16T03:05:48.943Z,81.61
2018-09-16T03:08:22.210Z,80.51
2018-09-16T03:10:52.315Z,80.61
2018-09-16T03:13:23.480Z,81.93
2018-09-16T03:15:53.615Z,81.44
2018-09-16T03:18:23.779Z,80.12
2018-09-16T03:20:54.051Z,79.00
2018-09-16T03:23:24.182Z,79.70
2018-09-16T03:25:54.435Z,80.57
2018-09-16T03:28:24.610Z,80.03
2018-09-16T03:30:54.681Z,80.93
2018-09-16T03:33:24.812Z,80.64
2018-09-16T03:35:54.854Z,80.61
2018-09-16T03:38:26.917Z,79.58
2018-09-16T03:40:57.062Z,80.00
2018-09-16T03:43:27.153Z,80.64
2018-09-16T03:45:57.309Z,82.00
2018-09-16T03:48:27.456Z,80.91
2018-09-16T03:50:58.074Z,80.72
2018-09-16T03:53:28.206Z,81.88
2018-09-16T03:55:58.351Z,80.59
2018-09-16T03:58:29.711Z,81.60
2018-09-16T04:00:59.886Z,80.28
2018-09-16T04:03:31.007Z,80.64
2018-09-16T04:06:01.183Z,81.10
2018-09-16T04:08:32.137Z,82.28
2018-09-16T04:11:03.423Z,80.23
2018-09-16T04:13:33.708Z,81.18
2018-09-16T04:16:03.877Z,81.40
2018-09-16T04:18:33.953Z,80.92
2018-09-16T04:21:04.069Z,82.81
2018-09-16T04:23:43.000Z,83.11
2018-09-16T04:26:13.324Z,83.28
2018-09-16T04:28:43.285Z,81.85
2018-09-16T04:31:14.851Z,80.16
2018-09-16T04:33:44.728Z,80.67
2018-09-16T04:36:14.675Z,82.63
2018-09-16T04:38:44.611Z,82.47
2018-09-16T04:41:14.530Z,82.22
2018-09-16T04:43:44.441Z,81.66
2018-09-16T04:46:14.463Z,80.39
2018-09-16T04:48:44.484Z,79.99
2018-09-16T04:51:14.934Z,79.27
2018-09-16T04:53:44.825Z,79.02
2018-09-16T04:56:14.875Z,78.71
2018-09-16T04:58:44.834Z,79.71
2018-09-16T05:01:14.744Z,80.07
2018-09-16T05:03:44.385Z,81.34
2018-09-16T05:06:14.380Z,79.42
2018-09-16T05:08:44.388Z,79.93
2018-09-16T05:11:14.271Z,80.75
2018-09-16T05:13:44.163Z,81.43
2018-09-16T05:16:13.971Z,82.00
2018-09-16T05:21:44.139Z,82.14
2018-09-16T05:24:13.947Z,82.51
2018-09-16T05:26:43.956Z,82.26
2018-09-16T05:29:13.824Z,82.03
2018-09-16T05:31:43.650Z,82.24
2018-09-16T05:34:13.663Z,82.72
2018-09-16T05:36:43.505Z,83.00
2018-09-16T05:39:13.471Z,83.39
2018-09-16T05:41:43.409Z,83.52
2018-09-16T05:44:13.447Z,82.51
2018-09-16T05:46:43.310Z,83.04
2018-09-16T05:49:13.079Z,84.21
2018-09-16T05:51:42.915Z,83.80
2018-09-16T05:54:12.968Z,82.29
2018-09-16T05:56:42.895Z,82.36
2018-09-16T05:59:13.230Z,83.05
2018-09-16T06:01:43.381Z,82.04
2018-09-16T06:04:13.376Z,82.54
2018-09-16T06:06:43.296Z,80.83
2018-09-16T06:09:15.255Z,79.97
2018-09-16T06:11:45.320Z,79.87
2018-09-16T06:14:15.267Z,79.84
2018-09-16T06:16:45.132Z,80.39
2018-09-16T06:19:15.167Z,79.49
2018-09-16T06:21:45.655Z,79.85
2018-09-16T06:24:15.551Z,79.35
2018-09-16T06:26:45.720Z,79.43
2018-09-16T06:29:16.380Z,79.13
2018-09-16T06:31:46.433Z,79.56
2018-09-16T06:34:16.423Z,80.29
2018-09-16T06:36:46.185Z,80.44
2018-09-16T06:39:16.158Z,79.72
2018-09-16T06:41:46.058Z,79.89
2018-09-16T06:44:16.102Z,79.38
2018-09-16T06:46:46.029Z,80.33
2018-09-16T06:49:15.927Z,79.67
2018-09-16T06:51:46.887Z,79.22
2018-09-16T06:54:16.725Z,79.67
2018-09-16T06:56:47.101Z,80.07
2018-09-16T06:59:17.095Z,79.43
2018-09-16T07:01:47.171Z,79.51
2018-09-16T07:04:17.013Z,82.38
2018-09-16T07:06:46.907Z,80.67
2018-09-16T07:09:17.973Z,80.98
2018-09-16T07:11:47.869Z,81.75
2018-09-16T07:14:17.764Z,83.43
2018-09-16T07:16:47.672Z,82.54
2018-09-16T07:19:17.481Z,84.06
2018-09-16T07:21:50.935Z,83.23
2018-09-16T07:24:20.828Z,85.04
2018-09-16T07:26:51.570Z,82.68
2018-09-16T07:29:21.452Z,84.81
2018-09-16T07:31:51.371Z,82.69
2018-09-16T07:34:27.951Z,82.31
2018-09-16T07:36:58.405Z,82.79
2018-09-16T07:39:28.670Z,82.13
2018-09-16T07:41:58.727Z,83.41
2018-09-16T07:44:29.206Z,81.12
2018-09-16T07:47:01.222Z,80.32
2018-09-16T07:49:31.256Z,79.92
2018-09-16T07:52:01.380Z,80.16
2018-09-16T07:54:31.426Z,79.11
2018-09-16T07:57:37.203Z,80.31
2018-09-16T08:00:07.824Z,81.53
2018-09-16T08:02:38.141Z,80.42
2018-09-16T08:05:08.612Z,80.40
2018-09-16T08:07:38.752Z,79.28
2018-09-16T08:10:09.074Z,76.78
2018-09-16T08:12:39.380Z,78.05
2018-09-16T08:15:09.928Z,77.20
2018-09-16T08:17:40.383Z,78.57
2018-09-16T08:20:10.392Z,77.07
2018-09-16T08:22:40.442Z,75.55
2018-09-16T08:25:10.467Z,74.13
2018-09-16T08:27:40.711Z,71.85
2018-09-16T08:30:10.872Z,70.52
2018-09-16T08:32:40.956Z,70.54
2018-09-16T08:35:23.216Z,72.85
2018-09-16T08:37:53.226Z,70.20
2018-09-16T08:40:23.164Z,67.20
2018-09-16T08:42:53.139Z,70.56
2018-09-16T08:45:23.136Z,69.29
2018-09-16T08:47:53.562Z,68.19
2018-09-16T08:50:23.525Z,66.49
2018-09-16T08:52:53.512Z,66.80
2018-09-16T08:55:23.634Z,66.49
2018-09-16T08:57:53.650Z,67.88
2018-09-16T09:00:23.602Z,65.58
2018-09-16T09:02:53.590Z,66.37
2018-09-16T09:05:23.730Z,64.55
2018-09-16T09:08:08.443Z,62.90
2018-09-16T09:10:38.858Z,62.03
2018-09-16T09:13:08.915Z,63.51
2018-09-16T09:15:38.971Z,63.19
2018-09-16T09:18:08.992Z,62.38
2018-09-16T09:20:39.027Z,63.23
2018-09-16T09:23:08.987Z,60.44
2018-09-16T09:25:39.004Z,61.69
2018-09-16T09:28:09.082Z,61.25
2018-09-16T09:30:39.220Z,60.83
2018-09-16T09:33:09.285Z,60.45
2018-09-16T09:35:39.617Z,58.11
2018-09-16T09:38:09.645Z,56.83
2018-09-16T09:40:39.688Z,59.65
2018-09-16T09:43:09.683Z,59.63
2018-09-16T09:45:39.699Z,58.08
2018-09-16T09:48:09.919Z,59.04
2018-09-16T09:50:40.112Z,57.69
2018-09-16T09:53:11.189Z,57.92
2018-09-16T09:55:41.327Z,55.28
2018-09-16T09:58:11.442Z,55.80
2018-09-16T10:00:46.479Z,57.15
2018-09-16T10:03:39.297Z,55.84
2018-09-16T10:06:09.775Z,56.16
2018-09-16T10:08:41.144Z,56.61
2018-09-16T10:11:11.239Z,55.71
2018-09-16T10:13:41.504Z,56.37
2018-09-16T10:16:11.429Z,53.92
2018-09-16T10:18:41.564Z,55.20
2018-09-16T10:21:11.645Z,55.37
2018-09-16T10:23:42.102Z,56.29
2018-09-16T10:26:12.320Z,53.69
2018-09-16T10:28:42.248Z,53.44
2018-09-16T10:31:12.248Z,52.68
2018-09-16T10:33:42.479Z,54.33
2018-09-16T10:36:12.579Z,51.87
2018-09-16T10:38:42.617Z,54.29
2018-09-16T10:41:13.173Z,52.63
2018-09-16T10:43:43.377Z,52.28
2018-09-16T10:46:13.453Z,51.67
2018-09-16T10:48:43.405Z,51.14
2018-09-16T10:51:13.482Z,50.74
2018-09-16T10:53:43.469Z,50.79
2018-09-16T10:56:13.527Z,50.83
2018-09-16T10:58:43.653Z,50.29
2018-09-16T11:01:13.752Z,51.44
2018-09-16T11:03:43.848Z,51.17
2018-09-16T11:06:13.731Z,50.98
2018-09-16T11:08:44.115Z,51.38
2018-09-16T11:11:14.451Z,50.67
2018-09-16T11:13:44.560Z,50.77
2018-09-16T11:16:15.051Z,50.29
2018-09-16T11:18:45.131Z,50.74
2018-09-16T11:21:15.107Z,52.46
2018-09-16T11:23:45.169Z,49.54
2018-09-16T11:26:15.505Z,51.05
2018-09-16T11:28:45.485Z,48.66
2018-09-16T11:31:15.404Z,49.57
2018-09-16T11:33:45.600Z,48.61
2018-09-16T11:36:15.687Z,50.45
2018-09-16T11:38:45.633Z,49.61
2018-09-16T11:41:15.623Z,49.79
2018-09-16T11:43:45.525Z,50.29
2018-09-16T11:46:15.384Z,49.90
2018-09-16T11:48:45.289Z,49.51
2018-09-16T11:51:15.260Z,49.75
2018-09-16T11:53:45.342Z,49.28
2018-09-16T11:56:15.570Z,49.76
2018-09-16T11:58:45.605Z,47.70
2018-09-16T12:01:15.654Z,49.85
2018-09-16T12:03:45.581Z,50.24
2018-09-16T12:06:15.515Z,46.77
2018-09-16T12:08:45.523Z,50.09
2018-09-16T12:11:15.692Z,47.06
2018-09-16T12:13:45.480Z,47.84
2018-09-16T12:16:16.033Z,46.77
2018-09-16T12:18:45.932Z,46.85
2018-09-16T12:21:15.866Z,48.58
2018-09-16T12:23:45.655Z,46.53
2018-09-16T12:26:15.530Z,46.29
2018-09-16T12:28:45.596Z,48.05
2018-09-16T12:31:15.562Z,45.96
2018-09-16T12:33:45.442Z,43.94
2018-09-16T12:36:15.644Z,45.20
2018-09-16T12:38:45.510Z,45.25
2018-09-16T12:41:15.442Z,44.53
2018-09-16T12:43:45.355Z,43.59
2018-09-16T12:46:15.343Z,44.95
2018-09-16T12:48:45.638Z,44.74
2018-09-16T12:51:15.481Z,45.76
2018-09-16T12:53:45.513Z,46.07
2018-09-16T12:56:15.568Z,46.12
2018-09-16T12:58:45.670Z,45.89
2018-09-16T13:01:15.700Z,44.17
2018-09-16T13:03:45.557Z,44.77
2018-09-16T13:06:15.427Z,45.41
2018-09-16T13:08:45.463Z,46.39
2018-09-16T13:11:15.382Z,47.43
2018-09-16T13:13:45.487Z,47.32
2018-09-16T13:16:15.652Z,46.54
2018-09-16T13:18:45.775Z,44.22
2018-09-16T13:21:15.688Z,45.61
2018-09-16T13:23:45.532Z,45.31
2018-09-16T13:26:15.496Z,42.69
2018-09-16T13:28:45.665Z,42.71
2018-09-16T13:31:15.572Z,42.13
2018-09-16T13:33:45.411Z,46.27
2018-09-16T13:36:15.369Z,46.52
2018-09-16T13:38:45.368Z,46.13
2018-09-16T13:41:15.374Z,45.38
2018-09-16T13:43:45.408Z,45.27
2018-09-16T13:46:15.351Z,47.31
2018-09-16T13:48:45.413Z,43.78
2018-09-16T13:51:15.416Z,43.04
2018-09-16T13:53:45.473Z,44.28
2018-09-16T13:56:15.328Z,41.23
2018-09-16T13:58:45.393Z,44.29
2018-09-16T14:01:15.204Z,44.05
2018-09-16T14:03:45.120Z,43.67
2018-09-16T14:06:15.151Z,45.23
2018-09-16T14:08:45.059Z,44.55
2018-09-16T14:11:15.071Z,46.21
2018-09-16T14:13:45.102Z,46.34
2018-09-16T14:16:15.108Z,45.78
2018-09-16T14:18:45.147Z,42.66
2018-09-16T14:21:14.954Z,43.06
2018-09-16T14:23:44.981Z,41.62
2018-09-16T14:26:14.995Z,43.14
2018-09-16T14:28:44.990Z,43.15
2018-09-16T14:31:14.938Z,43.50
2018-09-16T14:33:45.042Z,42.82
2018-09-16T14:36:14.967Z,44.45
2018-09-16T14:38:44.928Z,43.02
2018-09-16T14:41:14.872Z,43.25
2018-09-16T14:43:44.733Z,42.82
2018-09-16T14:46:14.807Z,41.21
2018-09-16T14:48:44.789Z,42.42
2018-09-16T14:51:14.909Z,41.04
2018-09-16T14:53:44.892Z,42.98
2018-09-16T14:56:14.843Z,40.97
2018-09-16T14:58:44.790Z,42.91
2018-09-16T15:01:15.401Z,44.35
2018-09-16T15:03:45.260Z,44.50
2018-09-16T15:06:15.187Z,42.75
2018-09-16T15:08:45.024Z,42.44
2018-09-16T15:11:15.000Z,44.20
2018-09-16T15:13:44.980Z,43.91
2018-09-16T15:16:14.712Z,41.33
2018-09-16T15:18:44.571Z,43.21
2018-09-16T15:21:14.660Z,42.66
2018-09-16T15:23:44.659Z,42.34
2018-09-16T15:26:14.628Z,41.44
2018-09-16T15:28:44.416Z,43.29
2018-09-16T15:31:14.289Z,44.42
2018-09-16T15:33:44.013Z,45.42
2018-09-16T15:36:15.893Z,46.33
2018-09-16T15:38:45.930Z,45.18
2018-09-16T15:41:15.866Z,46.54
2018-09-16T15:43:45.815Z,42.97
2018-09-16T15:46:17.160Z,44.23
2018-09-16T15:48:47.118Z,42.66
2018-09-16T15:51:17.029Z,44.93
2018-09-16T15:53:47.037Z,45.94
2018-09-16T15:56:26.565Z,45.10
2018-09-16T15:58:56.774Z,43.48
2018-09-16T16:01:26.808Z,43.78
2018-09-16T16:04:10.578Z,45.28
2018-09-16T16:06:40.443Z,45.17
2018-09-16T16:09:12.237Z,46.34
2018-09-16T16:11:42.191Z,44.39
2018-09-16T16:14:11.991Z,44.11
2018-09-16T16:16:41.932Z,44.48
2018-09-16T16:19:11.769Z,46.57
2018-09-16T16:21:41.844Z,47.25
2018-09-16T16:24:11.619Z,47.57
2018-09-16T16:26:41.493Z,48.55
2018-09-16T16:29:38.066Z,49.14
2018-09-16T16:32:08.178Z,49.04
2018-09-16T16:34:38.406Z,48.91
2018-09-16T16:37:08.430Z,50.16
2018-09-16T16:39:38.573Z,50.76
2018-09-16T16:42:08.461Z,50.63
2018-09-16T16:44:38.377Z,51.88
2018-09-16T16:47:08.503Z,51.57
2018-09-16T16:49:38.456Z,52.03
2018-09-16T16:52:08.340Z,52.64
2018-09-16T16:54:38.584Z,53.00
2018-09-16T16:57:08.435Z,52.86
2018-09-16T16:59:38.567Z,53.99
2018-09-16T17:02:08.744Z,53.42
2018-09-16T17:04:38.508Z,53.57
2018-09-16T17:07:08.714Z,53.39
2018-09-16T17:09:38.809Z,55.34
2018-09-16T17:12:10.139Z,54.40
2018-09-16T17:14:40.212Z,54.57
2018-09-16T17:17:10.110Z,54.74
2018-09-16T17:19:40.089Z,54.29
2018-09-16T17:22:09.966Z,55.25
2018-09-16T17:24:39.967Z,55.27
2018-09-16T17:27:10.501Z,56.80
2018-09-16T17:29:40.898Z,56.29
2018-09-16T17:32:11.308Z,56.33
2018-09-16T17:34:41.368Z,56.75
2018-09-16T17:37:11.290Z,57.82
2018-09-16T17:39:41.540Z,57.98
2018-09-16T17:42:11.365Z,57.25
2018-09-16T17:44:41.245Z,56.36
2018-09-16T17:47:11.416Z,57.52
2018-09-16T17:49:41.384Z,57.78
2018-09-16T17:52:11.290Z,56.90
2018-09-16T17:54:41.354Z,56.86
2018-09-16T17:57:11.771Z,57.04
2018-09-16T17:59:41.595Z,59.99
2018-09-16T18:02:11.639Z,59.99
2018-09-16T18:04:41.571Z,61.40
2018-09-16T18:07:11.709Z,61.65
2018-09-16T18:09:41.616Z,63.31
2018-09-16T18:12:11.776Z,62.85
2018-09-16T18:14:41.602Z,62.67
2018-09-16T18:17:11.491Z,61.26
2018-09-16T18:19:41.637Z,60.24
2018-09-16T18:22:11.561Z,59.69
2018-09-16T18:24:41.611Z,61.22
2018-09-16T18:27:11.583Z,63.32
2018-09-16T18:29:41.634Z,63.75
2018-09-16T18:32:11.808Z,63.10
2018-09-16T18:34:41.781Z,61.63
2018-09-16T18:37:11.916Z,60.77
2018-09-16T18:39:42.057Z,60.55
2018-09-16T18:42:11.977Z,62.73
2018-09-16T18:44:42.636Z,64.23
2018-09-16T18:47:12.731Z,65.73
2018-09-16T18:49:43.002Z,63.96
2018-09-16T18:52:13.410Z,62.35
2018-09-16T18:54:43.661Z,61.47
2018-09-16T18:57:13.764Z,60.95
2018-09-16T18:59:44.080Z,65.09
2018-09-16T19:02:14.199Z,65.82
2018-09-16T19:04:44.251Z,65.70
2018-09-16T19:07:14.439Z,64.58
2018-09-16T19:09:44.673Z,63.62
2018-09-16T19:12:15.410Z,62.93
2018-09-16T19:14:46.353Z,63.25
2018-09-16T19:17:16.174Z,63.09
2018-09-16T19:19:46.836Z,62.86
2018-09-16T19:22:16.881Z,62.25
2018-09-16T19:24:47.957Z,63.04
2018-09-16T19:27:17.979Z,63.55
2018-09-16T19:29:47.820Z,63.62
2018-09-16T19:32:17.929Z,62.60
2018-09-16T19:34:48.058Z,62.47
2018-09-16T19:37:18.475Z,62.31
2018-09-16T19:39:48.502Z,62.67
2018-09-16T19:42:18.629Z,63.33
2018-09-16T19:44:48.771Z,65.41
2018-09-16T19:47:18.753Z,65.63
2018-09-16T19:49:48.726Z,64.33
2018-09-16T19:52:19.591Z,63.88
2018-09-16T19:54:49.728Z,65.48
2018-09-16T19:57:19.617Z,68.97
2018-09-16T19:59:49.901Z,68.10
2018-09-16T20:02:19.987Z,70.17
2018-09-16T20:04:50.278Z,70.20
2018-09-16T20:07:20.472Z,69.39
2018-09-16T20:09:50.707Z,68.25
2018-09-16T20:12:20.774Z,68.57
2018-09-16T20:14:50.700Z,70.51
2018-09-16T20:17:20.504Z,70.41
2018-09-16T20:19:50.521Z,70.59
2018-09-16T20:22:20.621Z,68.84
2018-09-16T20:24:50.563Z,67.61
2018-09-16T20:27:20.437Z,66.87
2018-09-16T20:29:50.432Z,67.87
2018-09-16T20:32:20.280Z,69.07
2018-09-16T20:34:50.328Z,68.28
2018-09-16T20:37:20.269Z,67.36
2018-09-16T20:39:50.277Z,67.55
2018-09-16T20:42:20.062Z,70.17
2018-09-16T20:44:50.193Z,73.26
2018-09-16T20:47:19.995Z,72.20
2018-09-16T20:49:49.840Z,70.05
2018-09-16T20:52:19.804Z,69.39
2018-09-16T20:54:49.824Z,67.23
2018-09-16T20:57:19.738Z,67.30
2018-09-16T20:59:49.814Z,66.71
2018-09-16T21:02:19.957Z,66.43
2018-09-16T21:04:51.253Z,67.02
2018-09-16T21:07:21.831Z,69.50
2018-09-16T21:09:52.323Z,69.22
2018-09-16T21:12:22.213Z,71.64
2018-09-16T21:14:52.277Z,69.55
2018-09-16T21:17:22.434Z,70.53
2018-09-16T21:19:52.344Z,71.26
2018-09-16T21:22:22.360Z,73.91
2018-09-16T21:24:52.560Z,75.25
2018-09-16T21:27:22.647Z,73.80
2018-09-16T21:29:52.591Z,74.66
2018-09-16T21:32:22.684Z,74.99
2018-09-16T21:34:52.684Z,72.99
2018-09-16T21:37:22.755Z,72.76
2018-09-16T21:39:52.775Z,70.03
2018-09-16T21:42:22.636Z,69.31
2018-09-16T21:44:52.484Z,69.10
2018-09-16T21:47:22.414Z,69.52
2018-09-16T21:49:52.519Z,72.94
2018-09-16T21:52:22.339Z,72.99
2018-09-16T21:54:52.173Z,74.31
2018-09-16T21:57:22.292Z,74.12
2018-09-16T21:59:52.319Z,74.08
2018-09-16T22:02:22.117Z,72.77
2018-09-16T22:04:52.203Z,72.88
2018-09-16T22:07:22.305Z,73.69
2018-09-16T22:09:52.124Z,73.20
2018-09-16T22:12:22.157Z,71.77
2018-09-16T22:14:51.986Z,71.30
2018-09-16T22:17:21.764Z,69.74
2018-09-16T22:19:51.835Z,70.50
2018-09-16T22:22:21.725Z,73.00
2018-09-16T22:24:51.861Z,71.93
2018-09-16T22:27:21.932Z,70.91
2018-09-16T22:29:52.028Z,73.54
2018-09-16T22:32:22.633Z,76.34
2018-09-16T22:34:52.503Z,73.87
2018-09-16T22:37:22.497Z,71.58
2018-09-16T22:39:52.328Z,71.71
2018-09-16T22:42:22.322Z,70.17
2018-09-16T22:44:52.478Z,73.05
2018-09-16T22:47:22.476Z,73.89
2018-09-16T22:49:52.616Z,76.69
2018-09-16T22:52:22.763Z,73.69
2018-09-16T22:54:52.727Z,75.86
2018-09-16T22:57:22.614Z,73.37
2018-09-16T22:59:52.575Z,74.64
2018-09-16T23:02:22.569Z,74.54
2018-09-16T23:04:52.826Z,74.48
2018-09-16T23:07:22.770Z,73.53
2018-09-16T23:09:54.160Z,76.88
2018-09-16T23:12:24.882Z,77.07
2018-09-16T23:14:54.960Z,77.60
2018-09-16T23:17:25.187Z,75.28
2018-09-16T23:19:55.232Z,73.62
2018-09-16T23:22:25.490Z,73.34
2018-09-16T23:24:55.409Z,71.30
2018-09-16T23:27:33.419Z,72.11
2018-09-16T23:30:03.468Z,73.08
2018-09-16T23:32:33.738Z,75.64
2018-09-16T23:35:03.653Z,77.48
2018-09-16T23:37:33.795Z,77.92
2018-09-16T23:40:03.730Z,78.67
2018-09-16T23:42:33.725Z,76.55
2018-09-16T23:45:03.822Z,73.89
2018-09-16T23:47:33.843Z,71.07
2018-09-16T23:50:04.004Z,70.46
2018-09-16T23:52:34.138Z,70.24
2018-09-16T23:55:06.607Z,73.12
2018-09-16T23:57:40.256Z,74.67
